To NAV CANADA Home Page Login to a new session Search on AWWS site Disclaimer Vers la page française équivalente Tips FAQ What's new on the site To the Forecasts and Observations / NOTAM section To "File a Flight Plan" website Publications and other links Update of the User's profile FIC Telephone Numbers My Weather Data Folder Route Weather Data Regional Weather Data Local Weather Data To the Forecasts and Observations / NOTAM section
Request Generated 02/25/2018 at 11:48:09 UTC . Weather information available at that time is displayed.


Go to a specific product

Save this request - Inactive

METAR/TAF

OTTAWA/GATINEAU/QC    

LWIS CYND 251100Z AUTO 09017G26KT M03/M10 A3000=
LWIS CYND 251000Z AUTO 08016G22KT M04/M10 A3007=
LWIS CYND 250900Z AUTO 08019KT M03/M10 A3014=

*** REMARK        : Forecast period has ended; this was the last TAF issued
*** REMARQUE : La période de prévision est échue; ceci était le dernier TAF qui a été émis
TAF CYND 242338Z 2500/2502 35005KT P6SM BKN250
RMK NXT FCST WILL BE ISSUED AT 251345Z=

OTTAWA/MACDONALD-CARTIER INTL/ON    

METAR CYOW 251100Z 08021G27KT 15SM SCT070 OVC095 M03/M09 A2996 RMK
AC4AS4 SLP153=
METAR CYOW 251000Z 08017G24KT 15SM OVC120 M03/M10 A3004 RMK AS8
PRESFR SLP181=
METAR CYOW 250900Z 08015G25KT 15SM SCT130 BKN170 OVC200 M03/M09 A3011
RMK AC3AS3CS2 PRESFR SLP202=

TAF CYOW 251139Z 2512/2612 08018G28KT P6SM SCT070 OVC090 TEMPO
2512/2513 2SM -SN OVC060
FM251300 09015G25KT 11/2SM -SNPL OVC015 TEMPO 2513/2515 3SM -SN
OVC030
FM251500 08018G28KT 5SM -FZRA -PL BR OVC007 TEMPO 2515/2520 2SM
-FZRA BR OVC003
BECMG 2517/2519 10015KT
FM252000 19015KT P6SM BKN020 BKN050
FM252300 21015G25KT P6SM FEW030
BECMG 2602/2604 23010G20KT
FM260900 24010KT P6SM BKN030
RMK NXT FCST BY 251500Z=


GRAPHICAL FA CLOUDS & WEATHER FORECASTS
To the Product Selector
Graphical FA gfacn33      

GRAPHICAL FA ICING, TURBULENCE & FREEZING LEVEL FORECASTS
To the Product Selector
Graphical FA gfacn33      

FDTEXT Low Level FD. Temperatures are not forecast for the 3,000-foot level.
To the Product Selector
STN YOW - OTTAWA. ONT for use 3000 6000 9000 12000 18000
FDCN01 CWAO FCST BASED ON 250000 DATA VALID 250600 05-09 1221 2316-01 2520-04 2524-08 2646-19
FDCN02 CWAO FCST BASED ON 250000 DATA VALID 251200 09-18 1642 1736-03 2045-02 2248-06 2560-16
FDCN03 CWAO FCST BASED ON 250000 DATA VALID 260000 18-05 2438 2549-04 2466-05 2569-12 2688-24



Your time UTC time
Weather data provided by Environment Canada and NAV CANADA